sensor_id;sensor_type;location;lat;lon;timestamp;P1;durP1;ratioP1;P2;durP2;ratioP2
18360;SDS011;9308;48.550;9.108;2022-12-29T00:01:16;3.00;;;2.70;;
18360;SDS011;9308;48.550;9.108;2022-12-29T00:03:45;3.57;;;2.33;;
18360;SDS011;9308;48.550;9.108;2022-12-29T00:06:11;3.63;;;3.03;;
18360;SDS011;9308;48.550;9.108;2022-12-29T00:08:36;4.10;;;2.73;;
18360;SDS011;9308;48.550;9.108;2022-12-29T00:11:06;2.83;;;2.60;;
18360;SDS011;9308;48.550;9.108;2022-12-29T00:13:38;4.00;;;3.10;;
18360;SDS011;9308;48.550;9.108;2022-12-29T00:16:23;3.73;;;2.40;;
18360;SDS011;9308;48.550;9.108;2022-12-29T00:18:49;5.03;;;2.77;;
18360;SDS011;9308;48.550;9.108;2022-12-29T00:21:16;3.23;;;2.97;;
18360;SDS011;9308;48.550;9.108;2022-12-29T00:24:02;2.87;;;2.67;;
18360;SDS011;9308;48.550;9.108;2022-12-29T00:26:47;3.60;;;2.80;;
18360;SDS011;9308;48.550;9.108;2022-12-29T00:29:36;3.10;;;2.90;;
18360;SDS011;9308;48.550;9.108;2022-12-29T00:32:20;2.70;;;2.20;;
18360;SDS011;9308;48.550;9.108;2022-12-29T00:35:04;2.87;;;2.67;;
18360;SDS011;9308;48.550;9.108;2022-12-29T00:37:37;3.73;;;3.20;;
18360;SDS011;9308;48.550;9.108;2022-12-29T00:40:23;3.23;;;2.93;;
18360;SDS011;9308;48.550;9.108;2022-12-29T00:43:07;3.50;;;3.10;;
18360;SDS011;9308;48.550;9.108;2022-12-29T00:45:51;3.53;;;2.73;;
18360;SDS011;9308;48.550;9.108;2022-12-29T00:48:17;3.00;;;2.80;;
18360;SDS011;9308;48.550;9.108;2022-12-29T00:51:05;2.83;;;2.63;;
18360;SDS011;9308;48.550;9.108;2022-12-29T00:53:32;2.90;;;2.70;;
18360;SDS011;9308;48.550;9.108;2022-12-29T00:55:57;2.70;;;2.50;;
18360;SDS011;9308;48.550;9.108;2022-12-29T00:58:23;3.37;;;3.07;;
18360;SDS011;9308;48.550;9.108;2022-12-29T01:00:49;2.90;;;2.70;;
18360;SDS011;9308;48.550;9.108;2022-12-29T01:03:14;2.77;;;2.57;;
18360;SDS011;9308;48.550;9.108;2022-12-29T01:05:39;3.23;;;3.03;;
18360;SDS011;9308;48.550;9.108;2022-12-29T01:08:05;3.67;;;3.13;;
18360;SDS011;9308;48.550;9.108;2022-12-29T01:10:30;2.80;;;2.30;;
18360;SDS011;9308;48.550;9.108;2022-12-29T01:12:56;3.13;;;2.57;;
18360;SDS011;9308;48.550;9.108;2022-12-29T01:15:21;3.67;;;2.67;;
18360;SDS011;9308;48.550;9.108;2022-12-29T01:17:47;2.77;;;2.40;;
18360;SDS011;9308;48.550;9.108;2022-12-29T01:20:13;2.53;;;2.33;;
18360;SDS011;9308;48.550;9.108;2022-12-29T01:22:38;2.70;;;2.50;;
18360;SDS011;9308;48.550;9.108;2022-12-29T01:25:04;4.07;;;2.80;;
18360;SDS011;9308;48.550;9.108;2022-12-29T01:27:31;4.17;;;2.50;;
18360;SDS011;9308;48.550;9.108;2022-12-29T01:29:57;5.23;;;2.27;;
18360;SDS011;9308;48.550;9.108;2022-12-29T01:32:22;2.93;;;2.63;;
18360;SDS011;9308;48.550;9.108;2022-12-29T01:34:48;2.50;;;2.40;;
18360;SDS011;9308;48.550;9.108;2022-12-29T01:37:13;3.47;;;3.17;;
18360;SDS011;9308;48.550;9.108;2022-12-29T01:39:39;3.40;;;2.93;;
18360;SDS011;9308;48.550;9.108;2022-12-29T01:42:04;3.03;;;2.60;;
18360;SDS011;9308;48.550;9.108;2022-12-29T01:44:50;2.77;;;2.47;;
18360;SDS011;9308;48.550;9.108;2022-12-29T01:47:30;3.90;;;2.87;;
18360;SDS011;9308;48.550;9.108;2022-12-29T01:55:40;3.90;;;2.83;;
18360;SDS011;9308;48.550;9.108;2022-12-29T01:58:09;2.93;;;2.30;;
18360;SDS011;9308;48.550;9.108;2022-12-29T02:00:38;3.40;;;2.67;;
18360;SDS011;9308;48.550;9.108;2022-12-29T02:03:04;2.40;;;2.30;;
18360;SDS011;9308;48.550;9.108;2022-12-29T02:05:37;4.33;;;2.60;;
18360;SDS011;9308;48.550;9.108;2022-12-29T02:08:08;2.80;;;2.60;;
18360;SDS011;9308;48.550;9.108;2022-12-29T02:10:36;4.07;;;2.57;;
18360;SDS011;9308;48.550;9.108;2022-12-29T02:13:02;4.53;;;2.47;;
18360;SDS011;9308;48.550;9.108;2022-12-29T02:15:35;2.57;;;2.37;;
18360;SDS011;9308;48.550;9.108;2022-12-29T02:18:33;4.63;;;2.47;;
18360;SDS011;9308;48.550;9.108;2022-12-29T02:21:10;2.57;;;2.30;;
18360;SDS011;9308;48.550;9.108;2022-12-29T02:24:16;2.90;;;2.30;;
18360;SDS011;9308;48.550;9.108;2022-12-29T02:29:49;3.13;;;1.93;;
18360;SDS011;9308;48.550;9.108;2022-12-29T02:32:31;3.70;;;2.33;;
18360;SDS011;9308;48.550;9.108;2022-12-29T02:38:03;2.57;;;2.27;;
18360;SDS011;9308;48.550;9.108;2022-12-29T02:48:28;2.80;;;2.07;;
18360;SDS011;9308;48.550;9.108;2022-12-29T02:53:27;1.70;;;1.60;;
18360;SDS011;9308;48.550;9.108;2022-12-29T02:56:13;2.10;;;1.90;;
18360;SDS011;9308;48.550;9.108;2022-12-29T02:58:39;1.97;;;1.87;;
18360;SDS011;9308;48.550;9.108;2022-12-29T03:06:37;3.07;;;2.20;;
18360;SDS011;9308;48.550;9.108;2022-12-29T03:12:15;2.50;;;2.07;;
18360;SDS011;9308;48.550;9.108;2022-12-29T03:14:58;2.70;;;1.97;;
18360;SDS011;9308;48.550;9.108;2022-12-29T03:17:54;2.13;;;1.70;;
18360;SDS011;9308;48.550;9.108;2022-12-29T03:20:49;2.17;;;1.90;;
18360;SDS011;9308;48.550;9.108;2022-12-29T03:23:22;1.87;;;1.77;;
18360;SDS011;9308;48.550;9.108;2022-12-29T03:25:51;1.90;;;1.80;;
18360;SDS011;9308;48.550;9.108;2022-12-29T03:28:26;3.47;;;1.90;;
18360;SDS011;9308;48.550;9.108;2022-12-29T03:30:57;2.00;;;1.90;;
18360;SDS011;9308;48.550;9.108;2022-12-29T03:33:24;2.50;;;1.97;;
18360;SDS011;9308;48.550;9.108;2022-12-29T03:35:53;1.80;;;1.70;;
18360;SDS011;9308;48.550;9.108;2022-12-29T03:38:35;3.17;;;1.80;;
18360;SDS011;9308;48.550;9.108;2022-12-29T03:41:08;2.53;;;1.90;;
18360;SDS011;9308;48.550;9.108;2022-12-29T03:43:38;2.17;;;1.87;;
18360;SDS011;9308;48.550;9.108;2022-12-29T03:46:03;3.03;;;2.10;;
18360;SDS011;9308;48.550;9.108;2022-12-29T03:48:29;2.33;;;2.20;;
18360;SDS011;9308;48.550;9.108;2022-12-29T03:50:54;4.97;;;2.27;;
18360;SDS011;9308;48.550;9.108;2022-12-29T03:53:19;1.83;;;1.73;;
18360;SDS011;9308;48.550;9.108;2022-12-29T03:55:45;2.27;;;1.93;;
18360;SDS011;9308;48.550;9.108;2022-12-29T03:58:11;2.20;;;1.93;;
18360;SDS011;9308;48.550;9.108;2022-12-29T04:00:36;2.20;;;2.00;;
18360;SDS011;9308;48.550;9.108;2022-12-29T04:03:02;2.50;;;1.83;;
18360;SDS011;9308;48.550;9.108;2022-12-29T04:05:27;2.47;;;2.10;;
18360;SDS011;9308;48.550;9.108;2022-12-29T04:07:53;3.40;;;2.07;;
18360;SDS011;9308;48.550;9.108;2022-12-29T04:10:18;2.87;;;2.10;;
18360;SDS011;9308;48.550;9.108;2022-12-29T04:12:44;3.93;;;2.00;;
18360;SDS011;9308;48.550;9.108;2022-12-29T04:15:11;3.30;;;2.07;;
18360;SDS011;9308;48.550;9.108;2022-12-29T04:17:37;2.00;;;1.73;;
18360;SDS011;9308;48.550;9.108;2022-12-29T04:20:03;2.00;;;1.90;;
18360;SDS011;9308;48.550;9.108;2022-12-29T04:22:48;2.87;;;2.13;;
18360;SDS011;9308;48.550;9.108;2022-12-29T04:25:13;1.93;;;1.83;;
18360;SDS011;9308;48.550;9.108;2022-12-29T04:27:39;7.67;;;2.00;;
18360;SDS011;9308;48.550;9.108;2022-12-29T04:30:04;2.20;;;2.00;;
18360;SDS011;9308;48.550;9.108;2022-12-29T04:32:30;3.43;;;2.17;;
18360;SDS011;9308;48.550;9.108;2022-12-29T04:34:55;3.00;;;2.03;;
18360;SDS011;9308;48.550;9.108;2022-12-29T04:37:21;2.73;;;2.20;;
18360;SDS011;9308;48.550;9.108;2022-12-29T04:39:46;2.47;;;2.27;;
18360;SDS011;9308;48.550;9.108;2022-12-29T04:42:12;3.03;;;2.17;;
18360;SDS011;9308;48.550;9.108;2022-12-29T04:44:37;2.53;;;2.17;;
18360;SDS011;9308;48.550;9.108;2022-12-29T04:47:02;2.43;;;2.23;;
18360;SDS011;9308;48.550;9.108;2022-12-29T04:49:28;2.60;;;2.40;;
18360;SDS011;9308;48.550;9.108;2022-12-29T04:51:53;2.23;;;2.03;;
18360;SDS011;9308;48.550;9.108;2022-12-29T04:54:19;3.00;;;2.20;;
18360;SDS011;9308;48.550;9.108;2022-12-29T04:56:44;2.23;;;2.03;;
18360;SDS011;9308;48.550;9.108;2022-12-29T04:59:10;2.50;;;2.30;;
18360;SDS011;9308;48.550;9.108;2022-12-29T05:01:35;2.60;;;2.20;;
18360;SDS011;9308;48.550;9.108;2022-12-29T05:04:00;2.00;;;1.90;;
18360;SDS011;9308;48.550;9.108;2022-12-29T05:06:26;2.50;;;2.30;;
18360;SDS011;9308;48.550;9.108;2022-12-29T05:08:51;2.20;;;2.00;;
18360;SDS011;9308;48.550;9.108;2022-12-29T05:11:17;2.70;;;2.07;;
18360;SDS011;9308;48.550;9.108;2022-12-29T05:13:44;5.10;;;2.33;;
18360;SDS011;9308;48.550;9.108;2022-12-29T05:16:11;3.27;;;2.23;;
18360;SDS011;9308;48.550;9.108;2022-12-29T05:18:36;1.90;;;1.80;;
18360;SDS011;9308;48.550;9.108;2022-12-29T05:21:01;2.20;;;2.10;;
18360;SDS011;9308;48.550;9.108;2022-12-29T05:23:27;4.40;;;2.40;;
18360;SDS011;9308;48.550;9.108;2022-12-29T05:25:52;3.10;;;2.80;;
18360;SDS011;9308;48.550;9.108;2022-12-29T05:28:18;2.40;;;2.20;;
18360;SDS011;9308;48.550;9.108;2022-12-29T05:30:43;2.47;;;2.00;;
18360;SDS011;9308;48.550;9.108;2022-12-29T05:33:09;2.47;;;2.27;;
18360;SDS011;9308;48.550;9.108;2022-12-29T05:35:36;2.63;;;2.43;;
18360;SDS011;9308;48.550;9.108;2022-12-29T05:38:02;2.37;;;2.17;;
18360;SDS011;9308;48.550;9.108;2022-12-29T05:40:27;2.20;;;2.10;;
18360;SDS011;9308;48.550;9.108;2022-12-29T05:42:53;2.83;;;2.63;;
18360;SDS011;9308;48.550;9.108;2022-12-29T05:45:18;4.10;;;1.90;;
18360;SDS011;9308;48.550;9.108;2022-12-29T05:47:44;5.97;;;2.40;;
18360;SDS011;9308;48.550;9.108;2022-12-29T05:50:09;2.70;;;2.50;;
18360;SDS011;9308;48.550;9.108;2022-12-29T05:52:35;2.60;;;2.40;;
18360;SDS011;9308;48.550;9.108;2022-12-29T05:55:00;3.57;;;2.40;;
18360;SDS011;9308;48.550;9.108;2022-12-29T05:57:25;2.50;;;2.30;;
18360;SDS011;9308;48.550;9.108;2022-12-29T05:59:51;2.50;;;2.27;;
18360;SDS011;9308;48.550;9.108;2022-12-29T06:02:16;2.60;;;2.27;;
18360;SDS011;9308;48.550;9.108;2022-12-29T06:04:42;2.10;;;2.00;;
18360;SDS011;9308;48.550;9.108;2022-12-29T06:07:07;3.70;;;2.20;;
18360;SDS011;9308;48.550;9.108;2022-12-29T06:09:33;2.40;;;2.20;;
18360;SDS011;9308;48.550;9.108;2022-12-29T06:11:58;2.50;;;2.20;;
18360;SDS011;9308;48.550;9.108;2022-12-29T06:14:23;1.90;;;1.73;;
18360;SDS011;9308;48.550;9.108;2022-12-29T06:16:49;3.03;;;2.70;;
18360;SDS011;9308;48.550;9.108;2022-12-29T06:19:14;5.10;;;2.83;;
18360;SDS011;9308;48.550;9.108;2022-12-29T06:21:40;2.40;;;2.20;;
18360;SDS011;9308;48.550;9.108;2022-12-29T06:24:05;2.77;;;2.13;;
18360;SDS011;9308;48.550;9.108;2022-12-29T06:26:31;2.60;;;2.20;;
18360;SDS011;9308;48.550;9.108;2022-12-29T06:28:56;3.73;;;2.57;;
18360;SDS011;9308;48.550;9.108;2022-12-29T06:31:22;2.20;;;2.03;;
18360;SDS011;9308;48.550;9.108;2022-12-29T06:33:47;2.47;;;2.10;;
18360;SDS011;9308;48.550;9.108;2022-12-29T06:36:12;2.50;;;2.30;;
18360;SDS011;9308;48.550;9.108;2022-12-29T06:38:38;3.17;;;2.20;;
18360;SDS011;9308;48.550;9.108;2022-12-29T06:41:03;2.60;;;2.10;;
18360;SDS011;9308;48.550;9.108;2022-12-29T06:43:29;4.33;;;2.67;;
18360;SDS011;9308;48.550;9.108;2022-12-29T06:45:55;2.40;;;2.20;;
18360;SDS011;9308;48.550;9.108;2022-12-29T06:48:21;2.93;;;2.70;;
18360;SDS011;9308;48.550;9.108;2022-12-29T06:50:46;3.23;;;2.27;;
18360;SDS011;9308;48.550;9.108;2022-12-29T06:53:12;2.30;;;2.10;;
18360;SDS011;9308;48.550;9.108;2022-12-29T06:55:37;1.90;;;1.80;;
18360;SDS011;9308;48.550;9.108;2022-12-29T06:58:02;4.63;;;2.20;;
18360;SDS011;9308;48.550;9.108;2022-12-29T07:00:28;2.83;;;2.37;;
18360;SDS011;9308;48.550;9.108;2022-12-29T07:02:54;2.87;;;2.43;;
18360;SDS011;9308;48.550;9.108;2022-12-29T07:05:20;2.67;;;2.30;;
18360;SDS011;9308;48.550;9.108;2022-12-29T07:07:46;2.20;;;2.10;;
18360;SDS011;9308;48.550;9.108;2022-12-29T07:10:11;3.77;;;2.30;;
18360;SDS011;9308;48.550;9.108;2022-12-29T07:12:37;3.07;;;2.83;;
18360;SDS011;9308;48.550;9.108;2022-12-29T07:15:02;3.20;;;3.00;;
18360;SDS011;9308;48.550;9.108;2022-12-29T07:17:28;2.37;;;2.17;;
18360;SDS011;9308;48.550;9.108;2022-12-29T07:19:53;2.67;;;2.47;;
18360;SDS011;9308;48.550;9.108;2022-12-29T07:22:19;2.47;;;1.90;;
18360;SDS011;9308;48.550;9.108;2022-12-29T07:24:44;2.60;;;1.80;;
18360;SDS011;9308;48.550;9.108;2022-12-29T07:27:09;3.00;;;2.30;;
18360;SDS011;9308;48.550;9.108;2022-12-29T07:29:38;2.43;;;2.20;;
18360;SDS011;9308;48.550;9.108;2022-12-29T07:32:04;2.63;;;2.43;;
18360;SDS011;9308;48.550;9.108;2022-12-29T07:34:29;4.10;;;2.17;;
18360;SDS011;9308;48.550;9.108;2022-12-29T07:36:55;2.30;;;2.10;;
18360;SDS011;9308;48.550;9.108;2022-12-29T07:39:20;3.73;;;2.33;;
18360;SDS011;9308;48.550;9.108;2022-12-29T07:41:46;3.70;;;2.40;;
18360;SDS011;9308;48.550;9.108;2022-12-29T07:44:11;6.53;;;2.40;;
18360;SDS011;9308;48.550;9.108;2022-12-29T07:46:36;2.40;;;2.30;;
18360;SDS011;9308;48.550;9.108;2022-12-29T07:49:02;2.90;;;2.33;;
18360;SDS011;9308;48.550;9.108;2022-12-29T07:51:28;2.03;;;1.93;;
18360;SDS011;9308;48.550;9.108;2022-12-29T07:53:53;2.40;;;1.70;;
18360;SDS011;9308;48.550;9.108;2022-12-29T07:56:19;2.40;;;2.10;;
18360;SDS011;9308;48.550;9.108;2022-12-29T07:58:44;2.20;;;2.00;;
18360;SDS011;9308;48.550;9.108;2022-12-29T08:01:09;2.53;;;2.33;;
18360;SDS011;9308;48.550;9.108;2022-12-29T08:03:35;2.67;;;2.20;;
18360;SDS011;9308;48.550;9.108;2022-12-29T08:06:01;3.73;;;2.20;;
18360;SDS011;9308;48.550;9.108;2022-12-29T08:08:27;2.60;;;2.40;;
18360;SDS011;9308;48.550;9.108;2022-12-29T08:10:52;2.00;;;1.83;;
18360;SDS011;9308;48.550;9.108;2022-12-29T08:13:18;2.67;;;2.40;;
18360;SDS011;9308;48.550;9.108;2022-12-29T08:15:43;3.70;;;2.20;;
18360;SDS011;9308;48.550;9.108;2022-12-29T08:18:08;2.87;;;2.10;;
18360;SDS011;9308;48.550;9.108;2022-12-29T08:20:34;2.60;;;1.80;;
18360;SDS011;9308;48.550;9.108;2022-12-29T08:22:59;1.87;;;1.70;;
18360;SDS011;9308;48.550;9.108;2022-12-29T08:25:25;2.17;;;2.03;;
18360;SDS011;9308;48.550;9.108;2022-12-29T08:27:50;2.87;;;2.00;;
18360;SDS011;9308;48.550;9.108;2022-12-29T08:30:16;2.30;;;2.10;;
18360;SDS011;9308;48.550;9.108;2022-12-29T08:32:41;2.30;;;2.10;;
18360;SDS011;9308;48.550;9.108;2022-12-29T08:35:07;2.87;;;2.10;;
18360;SDS011;9308;48.550;9.108;2022-12-29T08:37:33;2.53;;;2.03;;
18360;SDS011;9308;48.550;9.108;2022-12-29T08:39:59;2.67;;;2.47;;
18360;SDS011;9308;48.550;9.108;2022-12-29T08:42:28;2.70;;;2.50;;
18360;SDS011;9308;48.550;9.108;2022-12-29T08:44:57;2.47;;;2.27;;
18360;SDS011;9308;48.550;9.108;2022-12-29T08:47:23;2.50;;;2.10;;
18360;SDS011;9308;48.550;9.108;2022-12-29T08:49:49;2.47;;;2.33;;
18360;SDS011;9308;48.550;9.108;2022-12-29T08:52:15;2.73;;;2.53;;
18360;SDS011;9308;48.550;9.108;2022-12-29T08:54:40;3.63;;;3.00;;
18360;SDS011;9308;48.550;9.108;2022-12-29T08:57:06;2.50;;;2.30;;
18360;SDS011;9308;48.550;9.108;2022-12-29T08:59:31;2.80;;;2.47;;
18360;SDS011;9308;48.550;9.108;2022-12-29T09:01:57;2.70;;;2.50;;
18360;SDS011;9308;48.550;9.108;2022-12-29T09:04:22;2.47;;;1.87;;
18360;SDS011;9308;48.550;9.108;2022-12-29T09:06:48;3.00;;;2.40;;
18360;SDS011;9308;48.550;9.108;2022-12-29T09:09:14;2.13;;;1.90;;
18360;SDS011;9308;48.550;9.108;2022-12-29T09:11:40;3.67;;;2.37;;
18360;SDS011;9308;48.550;9.108;2022-12-29T09:14:06;1.93;;;1.77;;
18360;SDS011;9308;48.550;9.108;2022-12-29T09:16:32;2.10;;;2.00;;
18360;SDS011;9308;48.550;9.108;2022-12-29T09:18:58;3.50;;;2.30;;
18360;SDS011;9308;48.550;9.108;2022-12-29T09:21:24;2.33;;;2.07;;
18360;SDS011;9308;48.550;9.108;2022-12-29T09:23:49;2.07;;;1.83;;
18360;SDS011;9308;48.550;9.108;2022-12-29T09:26:14;2.53;;;2.33;;
18360;SDS011;9308;48.550;9.108;2022-12-29T09:28:40;2.37;;;2.13;;
18360;SDS011;9308;48.550;9.108;2022-12-29T09:31:06;5.90;;;2.30;;
18360;SDS011;9308;48.550;9.108;2022-12-29T09:33:31;3.00;;;2.10;;
18360;SDS011;9308;48.550;9.108;2022-12-29T09:35:59;3.53;;;2.57;;
18360;SDS011;9308;48.550;9.108;2022-12-29T09:38:24;2.23;;;2.03;;
18360;SDS011;9308;48.550;9.108;2022-12-29T09:40:52;2.20;;;2.00;;
18360;SDS011;9308;48.550;9.108;2022-12-29T09:43:41;2.43;;;2.23;;
18360;SDS011;9308;48.550;9.108;2022-12-29T09:46:24;2.30;;;2.10;;
18360;SDS011;9308;48.550;9.108;2022-12-29T09:48:58;4.33;;;2.73;;
18360;SDS011;9308;48.550;9.108;2022-12-29T09:51:33;2.20;;;1.93;;
18360;SDS011;9308;48.550;9.108;2022-12-29T09:54:24;3.27;;;2.27;;
18360;SDS011;9308;48.550;9.108;2022-12-29T09:56:53;2.87;;;2.53;;
18360;SDS011;9308;48.550;9.108;2022-12-29T09:59:24;2.90;;;2.37;;
18360;SDS011;9308;48.550;9.108;2022-12-29T10:04:42;1.70;;;1.60;;
18360;SDS011;9308;48.550;9.108;2022-12-29T10:07:10;3.10;;;1.83;;
18360;SDS011;9308;48.550;9.108;2022-12-29T10:12:29;6.50;;;2.30;;
18360;SDS011;9308;48.550;9.108;2022-12-29T10:18:16;2.90;;;2.00;;
18360;SDS011;9308;48.550;9.108;2022-12-29T10:20:56;3.30;;;2.17;;
18360;SDS011;9308;48.550;9.108;2022-12-29T10:23:33;3.03;;;1.87;;
18360;SDS011;9308;48.550;9.108;2022-12-29T10:26:04;3.23;;;2.37;;
18360;SDS011;9308;48.550;9.108;2022-12-29T10:28:38;2.83;;;2.13;;
18360;SDS011;9308;48.550;9.108;2022-12-29T10:31:24;5.17;;;3.40;;
18360;SDS011;9308;48.550;9.108;2022-12-29T10:33:58;4.33;;;3.43;;
18360;SDS011;9308;48.550;9.108;2022-12-29T10:36:28;3.27;;;2.97;;
18360;SDS011;9308;48.550;9.108;2022-12-29T10:42:04;2.90;;;2.10;;
18360;SDS011;9308;48.550;9.108;2022-12-29T10:44:45;3.20;;;1.83;;
18360;SDS011;9308;48.550;9.108;2022-12-29T10:47:12;2.37;;;2.17;;
18360;SDS011;9308;48.550;9.108;2022-12-29T10:49:42;2.17;;;2.00;;
18360;SDS011;9308;48.550;9.108;2022-12-29T10:52:09;2.60;;;2.00;;
18360;SDS011;9308;48.550;9.108;2022-12-29T10:54:39;1.90;;;1.80;;
18360;SDS011;9308;48.550;9.108;2022-12-29T10:59:50;2.93;;;2.47;;
18360;SDS011;9308;48.550;9.108;2022-12-29T11:05:05;2.37;;;1.90;;
18360;SDS011;9308;48.550;9.108;2022-12-29T11:07:41;2.80;;;2.60;;
18360;SDS011;9308;48.550;9.108;2022-12-29T11:13:01;3.60;;;2.33;;
18360;SDS011;9308;48.550;9.108;2022-12-29T11:15:40;2.80;;;2.50;;
18360;SDS011;9308;48.550;9.108;2022-12-29T11:18:21;3.90;;;2.23;;
18360;SDS011;9308;48.550;9.108;2022-12-29T11:20:49;2.43;;;2.23;;
18360;SDS011;9308;48.550;9.108;2022-12-29T11:23:29;2.23;;;2.03;;
18360;SDS011;9308;48.550;9.108;2022-12-29T11:28:36;4.33;;;2.37;;
18360;SDS011;9308;48.550;9.108;2022-12-29T11:31:03;2.50;;;2.30;;
18360;SDS011;9308;48.550;9.108;2022-12-29T11:33:32;3.20;;;2.40;;
18360;SDS011;9308;48.550;9.108;2022-12-29T11:36:17;1.97;;;1.87;;
18360;SDS011;9308;48.550;9.108;2022-12-29T11:38:49;3.57;;;2.10;;
18360;SDS011;9308;48.550;9.108;2022-12-29T11:41:24;3.63;;;1.93;;
18360;SDS011;9308;48.550;9.108;2022-12-29T11:43:51;2.40;;;2.07;;
18360;SDS011;9308;48.550;9.108;2022-12-29T11:46:20;3.03;;;2.50;;
18360;SDS011;9308;48.550;9.108;2022-12-29T11:48:50;2.33;;;2.13;;
18360;SDS011;9308;48.550;9.108;2022-12-29T11:51:49;2.60;;;2.40;;
18360;SDS011;9308;48.550;9.108;2022-12-29T11:54:09;2.40;;;2.20;;
18360;SDS011;9308;48.550;9.108;2022-12-29T11:56:48;2.37;;;2.27;;
18360;SDS011;9308;48.550;9.108;2022-12-29T12:01:58;2.80;;;2.60;;
18360;SDS011;9308;48.550;9.108;2022-12-29T12:04:35;2.87;;;2.67;;
18360;SDS011;9308;48.550;9.108;2022-12-29T12:07:03;3.00;;;2.60;;
18360;SDS011;9308;48.550;9.108;2022-12-29T12:09:43;4.67;;;2.73;;
18360;SDS011;9308;48.550;9.108;2022-12-29T12:12:24;2.63;;;2.43;;
18360;SDS011;9308;48.550;9.108;2022-12-29T12:14:55;4.53;;;2.30;;
18360;SDS011;9308;48.550;9.108;2022-12-29T12:17:43;2.50;;;2.30;;
18360;SDS011;9308;48.550;9.108;2022-12-29T12:20:18;2.70;;;2.03;;
18360;SDS011;9308;48.550;9.108;2022-12-29T12:25:37;2.37;;;2.20;;
18360;SDS011;9308;48.550;9.108;2022-12-29T12:28:10;2.57;;;2.40;;
18360;SDS011;9308;48.550;9.108;2022-12-29T12:30:45;2.83;;;2.60;;
18360;SDS011;9308;48.550;9.108;2022-12-29T12:33:16;2.70;;;2.50;;
18360;SDS011;9308;48.550;9.108;2022-12-29T12:41:12;3.87;;;2.60;;
18360;SDS011;9308;48.550;9.108;2022-12-29T12:43:46;3.10;;;2.50;;
18360;SDS011;9308;48.550;9.108;2022-12-29T12:54:14;3.40;;;3.10;;
18360;SDS011;9308;48.550;9.108;2022-12-29T13:10:42;3.70;;;3.40;;
18360;SDS011;9308;48.550;9.108;2022-12-29T13:16:41;3.20;;;3.00;;
18360;SDS011;9308;48.550;9.108;2022-12-29T13:27:56;3.23;;;2.60;;
18360;SDS011;9308;48.550;9.108;2022-12-29T13:33:41;4.47;;;4.00;;
18360;SDS011;9308;48.550;9.108;2022-12-29T13:41:49;5.77;;;3.63;;
18360;SDS011;9308;48.550;9.108;2022-12-29T13:44:18;3.80;;;3.00;;
18360;SDS011;9308;48.550;9.108;2022-12-29T13:46:47;3.60;;;3.00;;
18360;SDS011;9308;48.550;9.108;2022-12-29T13:49:21;3.50;;;3.20;;
18360;SDS011;9308;48.550;9.108;2022-12-29T13:51:53;3.20;;;2.90;;
18360;SDS011;9308;48.550;9.108;2022-12-29T13:54:27;3.13;;;2.60;;
18360;SDS011;9308;48.550;9.108;2022-12-29T14:00:02;4.33;;;3.10;;
18360;SDS011;9308;48.550;9.108;2022-12-29T14:07:43;4.63;;;3.20;;
18360;SDS011;9308;48.550;9.108;2022-12-29T14:13:12;2.93;;;2.40;;
18360;SDS011;9308;48.550;9.108;2022-12-29T14:15:41;2.50;;;2.30;;
18360;SDS011;9308;48.550;9.108;2022-12-29T14:18:13;2.33;;;2.10;;
18360;SDS011;9308;48.550;9.108;2022-12-29T14:20:53;3.00;;;2.70;;
18360;SDS011;9308;48.550;9.108;2022-12-29T14:28:34;3.03;;;2.47;;
18360;SDS011;9308;48.550;9.108;2022-12-29T14:31:00;2.90;;;2.70;;
18360;SDS011;9308;48.550;9.108;2022-12-29T14:33:28;2.60;;;2.17;;
18360;SDS011;9308;48.550;9.108;2022-12-29T14:35:56;2.40;;;2.20;;
18360;SDS011;9308;48.550;9.108;2022-12-29T14:38:23;3.20;;;2.20;;
18360;SDS011;9308;48.550;9.108;2022-12-29T14:40:50;2.53;;;2.33;;
18360;SDS011;9308;48.550;9.108;2022-12-29T14:43:20;2.50;;;2.20;;
18360;SDS011;9308;48.550;9.108;2022-12-29T14:45:54;3.00;;;2.80;;
18360;SDS011;9308;48.550;9.108;2022-12-29T14:48:36;3.30;;;2.50;;
18360;SDS011;9308;48.550;9.108;2022-12-29T14:56:58;2.80;;;2.60;;
18360;SDS011;9308;48.550;9.108;2022-12-29T14:59:26;4.13;;;2.83;;
18360;SDS011;9308;48.550;9.108;2022-12-29T15:01:53;3.37;;;2.60;;
18360;SDS011;9308;48.550;9.108;2022-12-29T15:04:22;3.70;;;2.60;;
18360;SDS011;9308;48.550;9.108;2022-12-29T15:06:51;4.43;;;2.83;;
18360;SDS011;9308;48.550;9.108;2022-12-29T15:09:28;3.23;;;2.93;;
18360;SDS011;9308;48.550;9.108;2022-12-29T15:12:19;3.60;;;2.40;;
18360;SDS011;9308;48.550;9.108;2022-12-29T15:14:49;3.40;;;2.60;;
18360;SDS011;9308;48.550;9.108;2022-12-29T15:17:27;3.07;;;2.80;;
18360;SDS011;9308;48.550;9.108;2022-12-29T15:19:55;2.50;;;2.30;;
18360;SDS011;9308;48.550;9.108;2022-12-29T15:22:22;3.23;;;2.30;;
18360;SDS011;9308;48.550;9.108;2022-12-29T15:24:49;3.07;;;2.57;;
18360;SDS011;9308;48.550;9.108;2022-12-29T15:27:19;3.00;;;2.40;;
18360;SDS011;9308;48.550;9.108;2022-12-29T15:29:57;5.03;;;3.07;;
18360;SDS011;9308;48.550;9.108;2022-12-29T15:32:25;5.93;;;2.70;;
18360;SDS011;9308;48.550;9.108;2022-12-29T15:34:56;3.20;;;2.90;;
18360;SDS011;9308;48.550;9.108;2022-12-29T15:37:37;3.10;;;2.87;;
18360;SDS011;9308;48.550;9.108;2022-12-29T15:40:02;3.00;;;2.60;;
18360;SDS011;9308;48.550;9.108;2022-12-29T15:42:35;3.23;;;2.93;;
18360;SDS011;9308;48.550;9.108;2022-12-29T15:45:15;3.07;;;2.70;;
18360;SDS011;9308;48.550;9.108;2022-12-29T15:47:42;3.03;;;2.73;;
18360;SDS011;9308;48.550;9.108;2022-12-29T15:50:14;4.33;;;3.60;;
18360;SDS011;9308;48.550;9.108;2022-12-29T15:52:52;3.27;;;3.07;;
18360;SDS011;9308;48.550;9.108;2022-12-29T15:55:19;6.07;;;5.67;;
18360;SDS011;9308;48.550;9.108;2022-12-29T15:58:17;6.87;;;6.33;;
18360;SDS011;9308;48.550;9.108;2022-12-29T16:00:48;7.40;;;6.80;;
18360;SDS011;9308;48.550;9.108;2022-12-29T16:03:18;6.50;;;6.00;;
18360;SDS011;9308;48.550;9.108;2022-12-29T16:05:49;4.60;;;4.20;;
18360;SDS011;9308;48.550;9.108;2022-12-29T16:08:31;3.90;;;3.70;;
18360;SDS011;9308;48.550;9.108;2022-12-29T16:11:00;4.33;;;3.83;;
18360;SDS011;9308;48.550;9.108;2022-12-29T16:13:38;6.10;;;4.00;;
18360;SDS011;9308;48.550;9.108;2022-12-29T16:16:13;3.40;;;3.20;;
18360;SDS011;9308;48.550;9.108;2022-12-29T16:18:43;4.50;;;3.57;;
18360;SDS011;9308;48.550;9.108;2022-12-29T16:21:15;4.00;;;3.70;;
18360;SDS011;9308;48.550;9.108;2022-12-29T16:23:44;6.70;;;4.03;;
18360;SDS011;9308;48.550;9.108;2022-12-29T16:26:18;4.17;;;3.87;;
18360;SDS011;9308;48.550;9.108;2022-12-29T16:28:47;3.47;;;3.17;;
18360;SDS011;9308;48.550;9.108;2022-12-29T16:31:17;3.67;;;3.20;;
18360;SDS011;9308;48.550;9.108;2022-12-29T16:33:49;3.33;;;3.03;;
18360;SDS011;9308;48.550;9.108;2022-12-29T16:39:17;4.43;;;3.50;;
18360;SDS011;9308;48.550;9.108;2022-12-29T16:41:49;4.03;;;3.40;;
18360;SDS011;9308;48.550;9.108;2022-12-29T16:44:16;3.63;;;3.30;;
18360;SDS011;9308;48.550;9.108;2022-12-29T16:49:23;5.77;;;4.20;;
18360;SDS011;9308;48.550;9.108;2022-12-29T16:51:49;4.53;;;4.13;;
18360;SDS011;9308;48.550;9.108;2022-12-29T16:54:40;3.77;;;3.53;;
18360;SDS011;9308;48.550;9.108;2022-12-29T16:57:06;4.87;;;4.00;;
18360;SDS011;9308;48.550;9.108;2022-12-29T16:59:36;4.40;;;4.00;;
18360;SDS011;9308;48.550;9.108;2022-12-29T17:02:10;3.40;;;3.10;;
18360;SDS011;9308;48.550;9.108;2022-12-29T17:04:40;4.27;;;3.10;;
18360;SDS011;9308;48.550;9.108;2022-12-29T17:07:15;4.87;;;4.43;;
18360;SDS011;9308;48.550;9.108;2022-12-29T17:09:42;5.07;;;4.57;;
18360;SDS011;9308;48.550;9.108;2022-12-29T17:12:08;6.43;;;5.60;;
18360;SDS011;9308;48.550;9.108;2022-12-29T17:17:34;5.70;;;5.10;;
18360;SDS011;9308;48.550;9.108;2022-12-29T17:20:14;8.63;;;7.73;;
18360;SDS011;9308;48.550;9.108;2022-12-29T17:22:42;9.67;;;8.70;;
18360;SDS011;9308;48.550;9.108;2022-12-29T17:25:11;8.03;;;7.23;;
18360;SDS011;9308;48.550;9.108;2022-12-29T17:27:40;5.97;;;5.37;;
18360;SDS011;9308;48.550;9.108;2022-12-29T17:30:11;6.00;;;5.40;;
18360;SDS011;9308;48.550;9.108;2022-12-29T17:32:39;5.00;;;4.60;;
18360;SDS011;9308;48.550;9.108;2022-12-29T17:35:12;5.60;;;5.03;;